Ralston, Nebraska
Current Conditions -  °F | °C
As of 9:35 AM on Friday 19 Dec 2014 (Local Time) from KMLE Reporting Station
Haze Haze  
Wind Chill: 26°   Ceiling: 600
Heat Index: 32°   Visibility: 4mi
Dew Point: 30°   Wind: 6mph
Humidity: 91%   Direction: 150°SSE
Pressure: 30.23"   Gusts: NA
Location:  41.166°N, 96.0444°W
Report Text: KMLE 191535Z AUTO 15005KT 4SM BR BKN006 BKN015 OVC026 00/M01 A3023 RMK AO2 T00001013
Loading
Personal Weather Stations






























Interactive Weather Map New forecast layout! Learn more

10-Day Weather Forecast

Advertisements
Track Severe Weather on mobile